Home > Products > Valid Products > TAF

000
FTUS44 KSHV 060536
TAFSHV
TAF
KSHV 060536Z 0606/0706 19009KT P6SM SCT150 BKN250
      TEMPO 0610/0614 5SM BR BKN008
     FM061400 21008KT P6SM BKN010
     FM061600 21011G18KT P6SM SCT250
     FM070000 18007KT P6SM SCT250=



000
FTUS44 KSHV 060536
TAFTYR
TAF
KTYR 060536Z 0606/0706 16009KT P6SM BKN050
      TEMPO 0610/0614 5SM BR BKN015
     FM061400 20014G21KT P6SM BKN015
     FM061600 19015G20KT P6SM SCT050
     FM070000 17010KT P6SM SCT250=



000
FTUS44 KSHV 060536
TAFELD
TAF
KELD 060536Z 0606/0706 00000KT P6SM BKN250
      TEMPO 0610/0614 5SM BR BKN004
     FM061400 19006KT P6SM BKN010
     FM061600 20008KT P6SM SCT030
     FM062000 19010G17KT P6SM SCT250
     FM070000 16006KT P6SM BKN250=



000
FTUS44 KSHV 060536
TAFLFK
TAF
KLFK 060536Z 0606/0706 17007KT P6SM SCT250
      TEMPO 0610/0614 5SM BR BKN005
     FM061400 18006KT P6SM BKN008
     FM061600 19010KT P6SM SCT030
     FM061900 18012G20KT P6SM SCT250
     FM070000 16008KT P6SM SCT250=



000
FTUS44 KSHV 060536
TAFGGG
TAF
KGGG 060536Z 0606/0706 15008KT P6SM SCT250
      TEMPO 0610/0614 5SM BR BKN008
     FM061400 19007KT P6SM BKN010
     FM061600 20014G21KT P6SM SCT030
     FM070000 16009KT P6SM SCT250=



000
FTUS44 KSHV 060536
TAFTXK
TAF
KTXK 060536Z 0606/0706 16006KT P6SM BKN250
      TEMPO 0610/0614 5SM BR BKN008
     FM061400 19008KT P6SM BKN025
     FM061600 20012G18KT P6SM SCT040
     FM070000 16007KT P6SM SCT250=



000
FTUS44 KSHV 060536
TAFMLU
TAF
KMLU 060536Z 0606/0706 08003KT P6SM SCT250
      TEMPO 0610/0614 5SM BR BKN004
     FM061400 20006KT P6SM BKN015
     FM061600 20008KT P6SM BKN030
     FM061800 19009G14KT P6SM SCT250
     FM070000 18003KT P6SM SCT250=



000
FTUS44 KSHV 052320
TAFTYR
TAF
KTYR 052320Z 0600/0624 20010KT P6SM FEW060
     FM060100 16007KT P6SM SCT250
      TEMPO 0610/0614 5SM BR BKN015
     FM061400 20014G21KT P6SM BKN015
     FM061600 20014G21KT P6SM SCT050=



000
FTUS44 KSHV 052320
TAFSHV
TAF
KSHV 052320Z 0600/0624 18006KT P6SM VCTS FEW035CB SCT045 BKN200
      TEMPO 0600/0602 VRB15G25KT 4SM TSRA BKN040CB
     FM060200 19005KT P6SM FEW050 SCT250
      TEMPO 0610/0614 5SM BR BKN008
     FM061400 21008KT P6SM BKN010
     FM061600 21011G18KT P6SM SCT250=



000
FTUS44 KSHV 052320
TAFMLU
TAF
KMLU 052320Z 0600/0624 18006KT P6SM VCSH BKN110
     FM060200 18004KT P6SM FEW050 SCT250
      TEMPO 0610/0614 5SM BR BKN004
     FM061400 20006KT P6SM BKN015
     FM061600 20008KT P6SM BKN030
     FM061800 19009G14KT P6SM SCT250=



000
FTUS44 KSHV 052320
TAFTXK
TAF
KTXK 052320Z 0600/0624 15008KT P6SM VCTS FEW040CB
      TEMPO 0600/0602 VRB15G25KT 4SM TSRA OVC040CB
     FM060200 17005KT P6SM FEW050 SCT250
      TEMPO 0610/0614 5SM BR BKN008
     FM061400 19008KT P6SM BKN025
     FM061600 20012G18KT P6SM SCT040=



000
FTUS44 KSHV 052320
TAFLFK
TAF
KLFK 052320Z 0600/0624 17008KT P6SM SCT250
      TEMPO 0610/0614 5SM BR BKN005
     FM061400 18006KT P6SM BKN008
     FM061600 19010KT P6SM SCT030
     FM061900 18012G20KT P6SM SCT250=



000
FTUS44 KSHV 052320
TAFELD
TAF
KELD 052320Z 0600/0624 15008KT P6SM VCSH SCT050
     FM060200 18004KT P6SM FEW050 SCT250
      TEMPO 0610/0614 5SM BR BKN004
     FM061400 19006KT P6SM BKN010
     FM061600 20008KT P6SM SCT030
     FM062000 19010G17KT P6SM SCT250=



000
FTUS44 KSHV 052320
TAFGGG
TAF
KGGG 052320Z 0600/0624 18009KT P6SM SCT050 SCT080
      TEMPO 0610/0614 5SM BR BKN008
     FM061400 19007KT P6SM BKN010
     FM061600 20014G21KT P6SM SCT030=



000
FTUS44 KSHV 052253 AAA
TAFTXK
TAF AMD
KTXK 052253Z 0523/0618 25007KT P6SM VCTS SCT050CB
      TEMPO 0523/0602 VRB15G25KT 4SM TSRA OVC040CB
     FM060200 19005KT P6SM FEW050 SCT250
      TEMPO 0610/0614 5SM BR BKN008
     FM061400 19008KT P6SM BKN010
     FM061600 20010KT P6SM SCT030=



000
FTUS44 KSHV 052253 AAA
TAFTXK
TAF AMD
KTXK 052253Z 0523/0618 25007KT P6SM VCTS SCT050CB
      TEMPO 0523/0602 VRB15G25KT 4SM TSRA OVC040CB
     FM060200 19005KT P6SM FEW050 SCT250
      TEMPO 0610/0614 5SM BR BKN008
     FM061400 19008KT P6SM BKN010
     FM061600 20010KT P6SM SCT030=



000
FTUS44 KSHV 052252 AAC
TAFSHV
TAF AMD
KSHV 052252Z 0523/0618 21008KT P6SM VCTS SCT040CB SCT250
      TEMPO 0523/0602 VRB15G25KT 4SM TSRA BKN040CB
     FM060200 19005KT P6SM FEW050 SCT250
      TEMPO 0610/0614 5SM BR BKN008
     FM061400 21008KT P6SM BKN010
     FM061600 21010KT P6SM SCT030=



000
FTUS44 KSHV 052007 AAB
TAFSHV
TAF AMD
KSHV 052007Z 0520/0618 21008KT P6SM VCTS SCT040CB SCT250
     FM060100 19005KT P6SM FEW050 SCT250
      TEMPO 0610/0614 5SM BR BKN008
     FM061400 21008KT P6SM BKN010
     FM061600 21010KT P6SM SCT030=



000
FTUS44 KSHV 051852 AAA
TAFELD
TAF AMD
KELD 051852Z 0519/0618 22008KT P6SM VCTS SCT035CB SCT100 BKN250
      TEMPO 0519/0523 VRB20G40KT 2SM TSRA BR BKN020CB
     FM052300 VRB06KT P6SM VCTS BKN040CB BKN250
      TEMPO 0523/0602 VRB15G30KT 2SM TSRA BR BKN030CB
     FM060200 18004KT P6SM FEW050 SCT250
      TEMPO 0610/0614 5SM BR BKN004
     FM061400 19006KT P6SM BKN010
     FM061600 20008KT P6SM SCT030=



000
FTUS44 KSHV 051831 AAB
TAFSHV
TAF AMD
KSHV 051831Z 0519/0618 23008KT P6SM VCTS SCT035CB SCT100 SCT250
      TEMPO 0519/0523 VRB15G30KT 2SM TSRA BR BKN035CB
     FM052300 23008KT P6SM VCTS SCT040CB BKN250
     FM060100 19005KT P6SM FEW050 SCT250
      TEMPO 0610/0614 5SM BR BKN008
     FM061400 21008KT P6SM BKN010
     FM061600 21010KT P6SM SCT030=



000
FTUS44 KSHV 051823 AAA
TAFMLU
TAF AMD
KMLU 051823Z 0518/0618 19008KT P6SM VCTS SCT035CB BKN060 BKN250
      TEMPO 0518/0522 VRB15G30KT 2SM TSRA BR BKN030CB
     FM052200 22008KT P6SM VCTS SCT045CB BKN250
      TEMPO 0522/0602 VRB15G30KT 2SM TSRA BR BKN030CB
     FM060200 18004KT P6SM FEW050 SCT250
      TEMPO 0610/0614 5SM BR BKN004
     FM061400 20006KT P6SM BKN010
     FM061600 20008KT P6SM SCT030=



000
FTUS44 KSHV 051723
TAFTYR
TAF
KTYR 051723Z 0518/0618 21012G18KT P6SM SCT035 SCT250
     FM060100 19008KT P6SM FEW050 SCT250
      TEMPO 0610/0614 5SM BR BKN008
     FM061400 20012KT P6SM BKN010
     FM061600 20012G20KT P6SM SCT030=



000
FTUS44 KSHV 051723
TAFMLU
TAF
KMLU 051723Z 0518/0618 19008KT P6SM VCSH BKN015 BKN250
     FM052000 22008KT P6SM VCTS SCT040CB BKN250
      TEMPO 0520/0524 VRB15G30KT 2SM TSRA BR BKN030CB
     FM060100 18004KT P6SM FEW050 SCT250
      TEMPO 0610/0614 5SM BR BKN004
     FM061400 20006KT P6SM BKN010
     FM061600 20008KT P6SM SCT030=



000
FTUS44 KSHV 051723
TAFTXK
TAF
KTXK 051723Z 0518/0618 23008KT P6SM SCT035 SCT100 BKN250
     FM052000 23008KT P6SM VCTS SCT040CB BKN250
     FM060100 19005KT P6SM FEW050 SCT250
      TEMPO 0610/0614 5SM BR BKN008
     FM061400 19008KT P6SM BKN010
     FM061600 20010KT P6SM SCT030=



000
FTUS44 KSHV 051723
TAFGGG
TAF
KGGG 051723Z 0518/0618 22010KT P6SM SCT035 SCT250
     FM052000 22010KT P6SM VCTS SCT040CB SCT250
     FM060100 19005KT P6SM FEW050 SCT250
      TEMPO 0610/0614 5SM BR BKN008
     FM061400 19007KT P6SM BKN010
     FM061600 20012KT P6SM SCT030=



000
FTUS44 KSHV 051723
TAFSHV
TAF
KSHV 051723Z 0518/0618 23008KT P6SM VCSH SCT035 BKN250
     FM052000 23008KT P6SM VCTS SCT040CB BKN250
     FM060100 19005KT P6SM FEW050 SCT250
      TEMPO 0610/0614 5SM BR BKN008
     FM061400 21008KT P6SM BKN010
     FM061600 21010KT P6SM SCT030=



000
FTUS44 KSHV 051723
TAFELD
TAF
KELD 051723Z 0518/0618 22008KT P6SM VCSH SCT035 BKN250
     FM052000 22008KT P6SM VCTS SCT040CB BKN250
      TEMPO 0520/0524 VRB15G30KT 2SM TSRA BR BKN030CB
     FM060100 18004KT P6SM FEW050 SCT250
      TEMPO 0610/0614 5SM BR BKN004
     FM061400 19006KT P6SM BKN010
     FM061600 20008KT P6SM SCT030=



000
FTUS44 KSHV 051723
TAFLFK
TAF
KLFK 051723Z 0518/0618 23008KT P6SM VCSH SCT035 SCT250
     FM052000 23008KT P6SM VCTS SCT040CB SCT250
     FM060100 17006KT P6SM FEW050 SCT250
      TEMPO 0610/0614 5SM BR BKN005
     FM061400 18006KT P6SM BKN008
     FM061600 19010KT P6SM SCT030=



000
FTUS44 KSHV 051440 AAA
TAFGGG
TAF AMD
KGGG 051440Z 0515/0612 22010KT P6SM SCT025 SCT250
      TEMPO 0515/0517 BKN030
     FM051700 22011G17KT P6SM BKN040
     FM052100 19010KT P6SM VCTS BKN045CB
     FM060000 17009KT P6SM SCT045 BKN250
     FM060700 18008KT P6SM OVC015
     FM061000 19010KT 6SM BR OVC007=



000
FTUS44 KSHV 051440 AAA
TAFGGG
TAF AMD
KGGG 051440Z 0515/0612 22010KT P6SM SCT025 SCT250
      TEMPO 0515/0517 BKN030
     FM051700 22011G17KT P6SM BKN040
     FM052100 19010KT P6SM VCTS BKN045CB
     FM060000 17009KT P6SM SCT045 BKN250
     FM060700 18008KT P6SM OVC015
     FM061000 19010KT 6SM BR OVC007=



000
FTUS44 KSHV 051438 AAA
TAFTYR
TAF AMD
KTYR 051438Z 0515/0612 21010KT P6SM SCT025 SCT250
      TEMPO 0515/0517 BKN030
     FM051700 21011G17KT P6SM BKN040
     FM052100 19010KT P6SM VCTS BKN045CB
     FM060000 17009KT P6SM SCT045 BKN250
     FM060700 18008KT P6SM OVC015
     FM061000 19010KT 6SM BR OVC007=



000
FTUS44 KSHV 051436 AAB
TAFMLU
TAF AMD
KMLU 051436Z 0515/0612 21006KT P6SM OVC005
      TEMPO 0515/0517 BKN025
     FM051700 20007KT P6SM BKN030 BKN250
     FM052100 20008KT P6SM VCTS BKN040CB BKN250
     FM060000 19003KT P6SM BKN250
     FM060800 19003KT P6SM OVC007=



000
FTUS44 KSHV 051236 AAA
TAFTXK
TAF AMD
KTXK 051236Z 0513/0612 00000KT 5SM BR BKN004
      TEMPO 0513/0515 3SM BR BKN015
     FM051500 19008KT P6SM BKN015 OVC130
     FM051800 22007KT P6SM VCTS BKN040CB OVC090
     FM052100 20008KT P6SM BKN050
     FM060000 17005KT P6SM BKN250
     FM061100 19007KT 6SM BR OVC015=



000
FTUS44 KSHV 051221 AAA
TAFMLU
TAF AMD
KMLU 051221Z 0512/0612 18005KT P6SM VCTS OVC006CB
      TEMPO 0512/0514 -TSRA BKN015CB OVC040
     FM051500 19008KT P6SM BKN035
     FM052100 20008KT P6SM VCTS BKN040CB BKN120
     FM060000 19003KT P6SM BKN250
     FM060800 19003KT P6SM OVC007=



000
FTUS44 KSHV 051146
TAFTYR
TAF
KTYR 051146Z 0512/0612 19009KT P6SM BKN009 OVC015
      TEMPO 0512/0515 5SM BR BKN015
     FM051500 20010KT P6SM BKN020 OVC090
     FM051800 19011G17KT P6SM BKN040
     FM052100 19010KT P6SM VCTS BKN045CB
     FM060000 17009KT P6SM SCT045 BKN250
     FM060700 18008KT P6SM OVC015
     FM061000 19010KT 6SM BR OVC007=



000
FTUS44 KSHV 051146
TAFLFK
TAF
KLFK 051146Z 0512/0612 VRB03KT 1/2SM FG VV002
      TEMPO 0512/0513 1/4SM FG VV001
     FM051400 14005KT 2SM BR BKN006 BKN140
      TEMPO 0514/0516 5SM BR SCT006 BKN015
     FM051600 18007KT P6SM SCT025 BKN035
     FM051800 19010G15KT P6SM BKN045
     FM052100 18008KT 6SM -TSRA BKN045CB
     FM060100 16009KT P6SM BKN150=



000
FTUS44 KSHV 051146
TAFTXK
TAF
KTXK 051146Z 0512/0612 VRB04KT 4SM BR SCT050
      TEMPO 0512/0513 2SM BR BKN015
     FM051400 19008KT P6SM BKN015 OVC130
     FM051800 22007KT P6SM VCTS BKN040CB OVC090
     FM052100 20008KT P6SM BKN050
     FM060000 17005KT P6SM BKN250
     FM061100 19007KT 6SM BR OVC015=



000
FTUS44 KSHV 051146
TAFMLU
TAF
KMLU 051146Z 0512/0612 00000KT P6SM VCTS BKN040CB
      TEMPO 0512/0513 3SM -TSRA BR BKN015CB OVC040
     FM051300 VRB06KT 3SM -TSRA BR BKN015CB OVC035
     FM051500 24008KT P6SM BKN035
     FM052100 22008KT P6SM VCTS BKN040CB BKN120
     FM060000 18003KT P6SM BKN250
     FM060800 19003KT P6SM OVC007=



000
FTUS44 KSHV 051146
TAFELD
TAF
KELD 051146Z 0512/0612 19004KT P6SM VCTS BKN015CB OVC025
      TEMPO 0512/0514 -TSRA BKN007CB OVC015
     FM051800 20006KT P6SM BKN040
     FM052100 22005KT P6SM BKN050
      TEMPO 0521/0523 6SM -TSRA BKN045CB
     FM060000 17005KT P6SM OVC100
     FM060900 18005KT 6SM BR OVC015
     FM061000 19005KT 4SM BR OVC007=



000
FTUS44 KSHV 051146
TAFSHV
TAF
KSHV 051146Z 0512/0612 21006KT P6SM OVC007
      TEMPO 0512/0514 OVC015
     FM051400 22007KT P6SM BKN025 OVC100
     FM051500 22008KT P6SM SCT035 BKN045 OVC100
     FM051800 22007KT P6SM VCTS BKN050CB
      TEMPO 0519/0522 6SM -TSRA BKN045CB OVC080
     FM052200 23008KT P6SM BKN050 BKN150
     FM060000 19005KT P6SM BKN050 BKN250
     FM060900 19007KT P6SM OVC007=



000
FTUS44 KSHV 051146
TAFGGG
TAF
KGGG 051146Z 0512/0612 19006KT P6SM OVC009
      TEMPO 0512/0515 5SM BR BKN015
     FM051500 20010KT P6SM BKN020 OVC090
     FM051800 19011G17KT P6SM BKN040
     FM052200 19010KT P6SM VCTS BKN025CB OVC045
     FM060000 17009KT 6SM -TSRA BKN030CB OVC045
     FM060200 16009KT P6SM SCT045 BKN150
     FM060800 18008KT P6SM OVC015
     FM061000 19010KT 6SM BR OVC007=



000
FTUS44 KSHV 051135 AAA
TAFGGG
TAF AMD
KGGG 051135Z 0512/0606 19006KT P6SM OVC009
      TEMPO 0512/0515 5SM BR BKN015
     FM051500 20010KT P6SM BKN020 OVC090
     FM051800 19011G17KT P6SM BKN040
     FM052200 19010KT P6SM VCTS BKN025CB OVC045
     FM060000 17009KT 6SM -TSRA BKN030CB OVC045
     FM060200 16009KT P6SM SCT045 BKN150=



000
FTUS44 KSHV 051135 AAA
TAFGGG
TAF AMD
KGGG 051135Z 0512/0606 19006KT P6SM OVC009
      TEMPO 0512/0515 5SM BR BKN015
     FM051500 20010KT P6SM BKN020 OVC090
     FM051800 19011G17KT P6SM BKN040
     FM052200 19010KT P6SM VCTS BKN025CB OVC045
     FM060000 17009KT 6SM -TSRA BKN030CB OVC045
     FM060200 16009KT P6SM SCT045 BKN150=



000
FTUS44 KSHV 051132 AAA
TAFTYR
TAF AMD
KTYR 051132Z 0512/0606 19009KT P6SM BKN009 OVC015
      TEMPO 0512/0515 5SM BR BKN015
     FM051500 20010KT P6SM BKN020 OVC090
     FM051800 19011G17KT P6SM BKN040
     FM052100 19010KT P6SM VCTS BKN045CB
     FM060000 17009KT P6SM SCT045 BKN250=



000
FTUS44 KSHV 051132 AAA
TAFTYR
TAF AMD
KTYR 051132Z 0512/0606 19009KT P6SM BKN009 OVC015
      TEMPO 0512/0515 5SM BR BKN015
     FM051500 20010KT P6SM BKN020 OVC090
     FM051800 19011G17KT P6SM BKN040
     FM052100 19010KT P6SM VCTS BKN045CB
     FM060000 17009KT P6SM SCT045 BKN250=



000
FTUS44 KSHV 051118 AAC
TAFSHV
TAF AMD
KSHV 051118Z 0511/0606 21006KT P6SM OVC007
      TEMPO 0512/0514 OVC015
     FM051400 22007KT P6SM BKN025 OVC100
     FM051500 22008KT P6SM SCT035 BKN045 OVC100
     FM051800 22007KT P6SM VCTS BKN050CB
      TEMPO 0519/0522 6SM -TSRA BKN045CB OVC080
     FM052200 23008KT P6SM BKN050 BKN150
     FM060000 19005KT P6SM BKN050 BKN250=



000
FTUS44 KSHV 051039 AAB
TAFLFK
TAF AMD
KLFK 051039Z 0511/0606 VRB03KT 1/2SM FG VV002
      TEMPO 0511/0513 1/4SM FG VV001
     FM051400 14005KT 2SM BR BKN006 BKN140
      TEMPO 0514/0516 5SM BR SCT006 BKN015
     FM051600 18007KT P6SM SCT025 BKN035
     FM051800 19010G15KT P6SM BKN045
     FM052100 18008KT 6SM -TSRA BKN045CB
     FM060100 16009KT P6SM BKN150=



000
FTUS44 KSHV 051014 AAA
TAFMLU
TAF AMD
KMLU 051014Z 0510/0606 00000KT P6SM VCTS BKN040CB
      TEMPO 0510/0513 3SM -TSRA BR BKN015CB OVC040
     FM051300 VRB06KT 3SM -TSRA BR BKN015CB OVC035
     FM051500 24008KT P6SM BKN035
     FM052100 22008KT P6SM VCTS BKN040CB BKN120
     FM060000 18003KT P6SM BKN250=



000
FTUS44 KSHV 051014 AAA
TAFMLU
TAF AMD
KMLU 051014Z 0510/0606 00000KT P6SM VCTS BKN040CB
      TEMPO 0510/0513 3SM -TSRA BR BKN015CB OVC040
     FM051300 VRB06KT 3SM -TSRA BR BKN015CB OVC035
     FM051500 24008KT P6SM BKN035
     FM052100 22008KT P6SM VCTS BKN040CB BKN120
     FM060000 18003KT P6SM BKN250=



000
FTUS44 KSHV 050959 AAA
TAFTXK
TAF AMD
KTXK 050959Z 0510/0606 VRB04KT 4SM BR SCT050
      TEMPO 0510/0513 2SM BR BKN015
     FM051400 19008KT P6SM BKN015 OVC130
     FM051800 22007KT P6SM VCTS BKN040CB OVC090
     FM052100 20008KT P6SM BKN050
     FM060000 17005KT P6SM BKN250=



000
FTUS44 KSHV 050712 AAA
TAFLFK
TAF AMD
KLFK 050712Z 0507/0606 13005KT P6SM BKN003
      TEMPO 0511/0514 4SM BR BKN010
     FM051400 21008KT P6SM SCT030
     FM051800 18011G17KT P6SM VCTS BKN050CB
     FM060000 15009KT P6SM BKN250=



000
FTUS44 KSHV 050535
TAFMLU
TAF
KMLU 050535Z 0506/0606 22007KT P6SM BKN250
      TEMPO 0508/0512 3SM BR BKN020
     FM051200 20006KT P6SM VCTS BKN030CB
     FM060000 18003KT P6SM SCT250=



000
FTUS44 KSHV 050535
TAFSHV
TAF
KSHV 050535Z 0506/0606 17004KT P6SM FEW012 SCT100 BKN210
      TEMPO 0509/0513 OVC015
     FM051600 25008KT P6SM SCT040
     FM051800 22007KT P6SM VCTS BKN050CB
     FM060000 16005KT P6SM BKN250=



000
FTUS44 KSHV 050535
TAFTXK
TAF
KTXK 050535Z 0506/0606 18006KT P6SM BKN250
      TEMPO 0509/0513 1SM BR BKN012
     FM051400 19008KT P6SM SCT040
     FM051800 19008KT P6SM VCTS BKN050CB
     FM060000 17005KT P6SM BKN250=



000
FTUS44 KSHV 050535
TAFGGG
TAF
KGGG 050535Z 0506/0606 17004KT P6SM SCT250
      TEMPO 0509/0513 BKN015
     FM051500 17008KT P6SM VCTS SCT035CB
     FM051800 21011G17KT P6SM VCTS BKN040CB
     FM060000 16010KT P6SM BKN250=



000
FTUS44 KSHV 050535
TAFLFK
TAF
KLFK 050535Z 0506/0606 14005KT P6SM BKN250
      TEMPO 0511/0514 4SM BR BKN010
     FM051400 21008KT P6SM SCT030
     FM051800 18011G17KT P6SM VCTS BKN050CB
     FM060000 15009KT P6SM BKN250=



000
FTUS44 KSHV 050535
TAFTYR
TAF
KTYR 050535Z 0506/0606 16010KT P6SM BKN250
      TEMPO 0510/0514 5SM BR BKN015
     FM051400 20010KT P6SM SCT030
     FM051800 19011G17KT P6SM VCTS SCT050CB
     FM060000 17009KT P6SM BKN250=



000
FTUS44 KSHV 050535
TAFELD
TAF
KELD 050535Z 0506/0606 19004KT P6SM SCT015 SCT250
      TEMPO 0507/0511 4SM BR BKN015
     FM051800 20006KT P6SM VCTS BKN040CB
     FM060000 17008KT P6SM VCSH BKN250=



000
FTUS44 KSHV 050206 AAA
TAFTYR
TAF AMD
KTYR 050206Z 0502/0524 12009KT P6SM VCTS SCT050CB
     FM050400 12006KT P6SM SCT250
      TEMPO 0510/0514 5SM BR BKN015
     FM051400 20010KT P6SM SCT030
     FM051800 19011KT P6SM VCTS SCT050CB=



000
FTUS44 KSHV 042320
TAFTYR
TAF
KTYR 042320Z 0500/0524 15009KT P6SM FEW045 SCT060 SCT070
      TEMPO 0510/0514 5SM BR BKN015
     FM051400 20010KT P6SM SCT030
     FM051800 19011KT P6SM VCTS SCT050CB=



000
FTUS44 KSHV 042320
TAFELD
TAF
KELD 042320Z 0500/0524 00000KT P6SM VCSH SCT250
     FM050200 20004KT P6SM BKN080
      TEMPO 0507/0511 4SM BR
     FM051800 22006KT P6SM VCTS BKN025CB=



000
FTUS44 KSHV 042320
TAFTXK
TAF
KTXK 042320Z 0500/0524 19007KT P6SM SCT250
     FM050600 21005KT 4SM BR SCT080
      TEMPO 0509/0513 1SM BR BKN012
     FM051400 19008KT P6SM SCT040
     FM051800 19008KT P6SM VCTS BKN050CB=



000
FTUS44 KSHV 042320
TAFMLU
TAF
KMLU 042320Z 0500/0524 24007KT 6SM RA BR FEW070 BKN100 OVC110
     FM050300 21004KT P6SM BKN080
      TEMPO 0508/0512 3SM BR BKN020
     FM051200 25006KT P6SM VCTS BKN030CB=



000
FTUS44 KSHV 042320
TAFLFK
TAF
KLFK 042320Z 0500/0524 15006KT P6SM VCTS FEW040CB BKN050 BKN080
      TEMPO 0500/0502 VRB15G25KT 4SM TSRA OVC040CB
     FM050200 16006KT P6SM SCT050
      TEMPO 0511/0514 4SM BR BKN010
     FM051400 21008KT P6SM SCT030
     FM051800 18011G17KT P6SM VCTS BKN050CB=



000
FTUS44 KSHV 042320
TAFSHV
TAF
KSHV 042320Z 0500/0524 VRB04KT P6SM VCSH FEW008 FEW035 BKN110
      TEMPO 0509/0513 OVC015
     FM051600 25008KT P6SM SCT040
     FM051800 22007KT P6SM VCTS BKN050CB=



000
FTUS44 KSHV 042320
TAFGGG
TAF
KGGG 042320Z 0500/0524 16004KT P6SM VCSH FEW029 FEW110
     FM050500 18006KT P6SM BKN110 BKN250
     FM051500 17008KT P6SM VCTS SCT035CB
     FM051800 21011G17KT P6SM VCTS BKN040CB=



000
FTUS44 KSHV 042320
TAFSHV
TAF
KSHV 042320Z 0500/0524 VRB04KT P6SM VCSH FEW008 FEW035 BKN110
      TEMPO 0509/0513 OVC015
     FM051600 25008KT P6SM SCT040
     FM051800 22007KT P6SM VCTS BKN050CB=



000
FTUS44 KSHV 042320
TAFLFK
TAF
KLFK 042320Z 0500/0524 15006KT P6SM VCTS FEW040CB BKN050 BKN080
      TEMPO 0500/0502 VRB15G25KT 4SM TSRA OVC040CB
     FM050200 16006KT P6SM SCT050
      TEMPO 0511/0514 4SM BR BKN010
     FM051400 21008KT P6SM SCT030
     FM051800 18011G17KT P6SM VCTS BKN050CB=



000
FTUS44 KSHV 042320
TAFGGG
TAF
KGGG 042320Z 0500/0524 16004KT P6SM VCSH FEW029 FEW110
     FM050500 18006KT P6SM BKN110 BKN250
     FM051500 17008KT P6SM VCTS SCT035CB
     FM051800 21011G17KT P6SM VCTS BKN040CB=



000
FTUS44 KSHV 042320
TAFELD
TAF
KELD 042320Z 0500/0524 00000KT P6SM VCSH SCT250
     FM050200 20004KT P6SM BKN080
      TEMPO 0507/0511 4SM BR
     FM051800 22006KT P6SM VCTS BKN025CB=



000
FTUS44 KSHV 042320
TAFMLU
TAF
KMLU 042320Z 0500/0524 24007KT 6SM RA BR FEW070 BKN100 OVC110
     FM050300 21004KT P6SM BKN080
      TEMPO 0508/0512 3SM BR BKN020
     FM051200 25006KT P6SM VCTS BKN030CB=



000
FTUS44 KSHV 042320
TAFTXK
TAF
KTXK 042320Z 0500/0524 19007KT P6SM SCT250
     FM050600 21005KT 4SM BR SCT080
      TEMPO 0509/0513 1SM BR BKN012
     FM051400 19008KT P6SM SCT040
     FM051800 19008KT P6SM VCTS BKN050CB=



000
FTUS44 KSHV 042247 AAB
TAFLFK
TAF AMD
KLFK 042247Z 0423/0518 22010KT P6SM VCTS SCT040CB
      TEMPO 0423/0501 VRB15G25KT 4SM TSRA OVC040CB
     FM050100 16006KT P6SM SCT050
      TEMPO 0509/0513 4SM BR BKN010
     FM051300 16007KT P6SM SCT030
      TEMPO 0513/0515 BKN020=



000
FTUS44 KSHV 042144 AAA
TAFLFK
TAF AMD
KLFK 042144Z 0422/0518 22010KT P6SM VCTS SCT040CB
     FM050000 16006KT P6SM SCT050
      TEMPO 0509/0513 4SM BR BKN010
     FM051300 16007KT P6SM SCT030
      TEMPO 0513/0515 BKN020=



000
FTUS44 KSHV 042035 AAA
TAFELD
TAF AMD
KELD 042035Z 0421/0518 14005KT P6SM VCSH SCT005 OVC070
     FM050200 20004KT P6SM BKN080
      TEMPO 0510/0514 2SM BR SKC
     FM051400 22006KT P6SM VCTS BKN025CB=



000
FTUS44 KSHV 042006 AAC
TAFSHV
TAF AMD
KSHV 042006Z 0420/0518 24008KT P6SM VCTS SCT020 BKN150CB
      TEMPO 0420/0423 VRB15G30KT 2SM TSRA BR OVC010CB
     FM050100 20004KT P6SM BKN100
     FM051600 23008KT P6SM SCT040=



000
FTUS44 KSHV 042006 AAC
TAFSHV
TAF AMD
KSHV 042006Z 0420/0518 24008KT P6SM VCTS SCT020 BKN150CB
      TEMPO 0420/0423 VRB15G30KT 2SM TSRA BR OVC010CB
     FM050100 20004KT P6SM BKN100
     FM051600 23008KT P6SM SCT040=



000
FTUS44 KSHV 042004 AAB
TAFTXK
TAF AMD
KTXK 042004Z 0420/0518 12006KT P6SM VCTS SCT040 OVC100CB
     FM042300 19005KT P6SM BKN060
     FM050600 21005KT 4SM BR SCT080
      TEMPO 0509/0513 1SM BR BKN012
     FM051400 22008KT P6SM SCT040=



000
FTUS44 KSHV 041907 AAA
TAFTXK
TAF AMD
KTXK 041907Z 0419/0518 12006KT P6SM VCTS SCT010 BKN020CB
      TEMPO 0419/0422 1SM +TSRA BR OVC008CB
     FM042300 19005KT P6SM BKN060
     FM050600 21005KT 4SM BR SCT080
      TEMPO 0509/0513 1SM BR BKN012
     FM051400 22008KT P6SM SCT040=



000
FTUS44 KSHV 041907 AAA
TAFTXK
TAF AMD
KTXK 041907Z 0419/0518 12006KT P6SM VCTS SCT010 BKN020CB
      TEMPO 0419/0422 1SM +TSRA BR OVC008CB
     FM042300 19005KT P6SM BKN060
     FM050600 21005KT 4SM BR SCT080
      TEMPO 0509/0513 1SM BR BKN012
     FM051400 22008KT P6SM SCT040=



000
FTUS44 KSHV 041906 AAA
TAFMLU
TAF AMD
KMLU 041906Z 0419/0518 36008KT P6SM SCT040
      TEMPO 0421/0501 VRB15G25KT 1SM +TSRA BR OVC015CB
     FM050300 20004KT P6SM BKN080
      TEMPO 0508/0512 3SM BR BKN020
     FM051200 22006KT P6SM VCTS BKN030CB=



000
FTUS44 KSHV 041906 AAA
TAFMLU
TAF AMD
KMLU 041906Z 0419/0518 36008KT P6SM SCT040
      TEMPO 0421/0501 VRB15G25KT 1SM +TSRA BR OVC015CB
     FM050300 20004KT P6SM BKN080
      TEMPO 0508/0512 3SM BR BKN020
     FM051200 22006KT P6SM VCTS BKN030CB=



000
FTUS44 KSHV 041743
TAFTYR
TAF
KTYR 041743Z 0418/0518 22010KT P6SM SCT030
     FM042000 22010KT P6SM VCTS SCT040CB
     FM050000 16006KT P6SM SCT050
      TEMPO 0510/0514 5SM BR BKN015
     FM051400 20010KT P6SM SCT030=



000
FTUS44 KSHV 041743
TAFTXK
TAF
KTXK 041743Z 0418/0518 VRB04KT P6SM VCTS SCT010 BKN020CB
      TEMPO 0418/0420 1SM +TSRA BR OVC008CB
     FM042300 19005KT P6SM BKN060
     FM050600 21005KT 4SM BR SCT080
      TEMPO 0509/0513 1SM BR BKN012
     FM051400 22008KT P6SM SCT040=



000
FTUS44 KSHV 041743
TAFELD
TAF
KELD 041743Z 0418/0518 14005KT P6SM VCTS SCT005 OVC070CB
      TEMPO 0418/0422 VRB20G40KT 1SM +TSRA BR OVC004CB
     FM050200 20004KT P6SM BKN080
      TEMPO 0510/0514 2SM BR SKC
     FM051400 22006KT P6SM VCTS BKN025CB=



000
FTUS44 KSHV 041743
TAFGGG
TAF
KGGG 041743Z 0418/0518 24008KT P6SM BKN035
     FM042000 23010KT P6SM VCTS SCT040CB
     FM050000 16006KT P6SM SCT050
      TEMPO 0510/0514 5SM BR BKN020
     FM051400 21010KT P6SM SCT035=



000
FTUS44 KSHV 041743
TAFSHV
TAF
KSHV 041743Z 0418/0518 24008KT P6SM VCTS SCT020 BKN150CB
      TEMPO 0419/0421 VRB15G30KT 4SM TSRA BR OVC015CB
     FM050100 20004KT P6SM BKN100
     FM051600 23008KT P6SM SCT040=



000
FTUS44 KSHV 041743
TAFTYR
TAF
KTYR 041743Z 0418/0518 22010KT P6SM SCT030
     FM042000 22010KT P6SM VCTS SCT040CB
     FM050000 16006KT P6SM SCT050
      TEMPO 0510/0514 5SM BR BKN015
     FM051400 20010KT P6SM SCT030=



000
FTUS44 KSHV 041743
TAFLFK
TAF
KLFK 041743Z 0418/0518 22010KT P6SM VCSH SCT040
     FM050000 16006KT P6SM SCT050
      TEMPO 0509/0513 4SM BR BKN010
     FM051300 16007KT P6SM SCT030
      TEMPO 0513/0515 BKN020=



000
FTUS44 KSHV 041743
TAFMLU
TAF
KMLU 041743Z 0418/0518 36008KT P6SM VCTS SCT040 BKN080CB
      TEMPO 0418/0422 VRB15G25KT 1SM +TSRA BR OVC015CB
     FM050300 20004KT P6SM BKN080
      TEMPO 0508/0512 3SM BR BKN020
     FM051200 22006KT P6SM VCTS BKN030CB=



000
FTUS44 KSHV 041743
TAFMLU
TAF
KMLU 041743Z 0418/0518 36008KT P6SM VCTS SCT040 BKN080CB
      TEMPO 0418/0422 VRB15G25KT 1SM +TSRA BR OVC015CB
     FM050300 20004KT P6SM BKN080
      TEMPO 0508/0512 3SM BR BKN020
     FM051200 22006KT P6SM VCTS BKN030CB=



000
FTUS44 KSHV 041743
TAFTXK
TAF
KTXK 041743Z 0418/0518 VRB04KT P6SM VCTS SCT010 BKN020CB
      TEMPO 0418/0420 1SM +TSRA BR OVC008CB
     FM042300 19005KT P6SM BKN060
     FM050600 21005KT 4SM BR SCT080
      TEMPO 0509/0513 1SM BR BKN012
     FM051400 22008KT P6SM SCT040=



000
FTUS44 KSHV 041743
TAFSHV
TAF
KSHV 041743Z 0418/0518 24008KT P6SM VCTS SCT020 BKN150CB
      TEMPO 0419/0421 VRB15G30KT 4SM TSRA BR OVC015CB
     FM050100 20004KT P6SM BKN100
     FM051600 23008KT P6SM SCT040=



000
FTUS44 KSHV 041743
TAFLFK
TAF
KLFK 041743Z 0418/0518 22010KT P6SM VCSH SCT040
     FM050000 16006KT P6SM SCT050
      TEMPO 0509/0513 4SM BR BKN010
     FM051300 16007KT P6SM SCT030
      TEMPO 0513/0515 BKN020=



000
FTUS44 KSHV 041743
TAFELD
TAF
KELD 041743Z 0418/0518 14005KT P6SM VCTS SCT005 OVC070CB
      TEMPO 0418/0422 VRB20G40KT 1SM +TSRA BR OVC004CB
     FM050200 20004KT P6SM BKN080
      TEMPO 0510/0514 2SM BR SKC
     FM051400 22006KT P6SM VCTS BKN025CB=



000
FTUS44 KSHV 041743
TAFGGG
TAF
KGGG 041743Z 0418/0518 24008KT P6SM BKN035
     FM042000 23010KT P6SM VCTS SCT040CB
     FM050000 16006KT P6SM SCT050
      TEMPO 0510/0514 5SM BR BKN020
     FM051400 21010KT P6SM SCT035=



000
FTUS44 KSHV 041617 AAB
TAFSHV
TAF AMD
KSHV 041617Z 0416/0512 22006KT P6SM SCT025 BKN150
      TEMPO 0416/0418 BKN015 OVC025
     FM041800 24007KT P6SM VCTS SCT035CB BKN100 OVC150
     FM042100 24007KT P6SM BKN045
     FM050300 20004KT P6SM BKN110=



000
FTUS44 KSHV 041615 AAA
TAFELD
TAF AMD
KELD 041615Z 0416/0512 03006KT P6SM VCTS SCT005 BKN080CB
      TEMPO 0416/0419 VRB15G30KT 1SM TSRA OVC003CB
     FM050000 16003KT P6SM BKN250=



000
FTUS44 KSHV 041615 AAA
TAFELD
TAF AMD
KELD 041615Z 0416/0512 03006KT P6SM VCTS SCT005 BKN080CB
      TEMPO 0416/0419 VRB15G30KT 1SM TSRA OVC003CB
     FM050000 16003KT P6SM BKN250=



000
FTUS44 KSHV 041606 AAA
TAFGGG
TAF AMD
KGGG 041606Z 0416/0512 22010KT P6SM BKN025 BKN150 BKN250
     FM041800 23010KT P6SM BKN035 BKN150 BKN250
     FM050000 16004KT P6SM FEW050 SCT150 SCT250=



000
FTUS44 KSHV 041606 AAA
TAFGGG
TAF AMD
KGGG 041606Z 0416/0512 22010KT P6SM BKN025 BKN150 BKN250
     FM041800 23010KT P6SM BKN035 BKN150 BKN250
     FM050000 16004KT P6SM FEW050 SCT150 SCT250=



000
FTUS44 KSHV 041603 AAA
TAFTXK
TAF AMD
KTXK 041603Z 0416/0512 24007KT P6SM VCTS BKN025CB OVC040
      TEMPO 0416/0420 2SM TSRA BR BKN015CB
     FM050000 19005KT P6SM VCTS BKN050CB=



000
FTUS44 KSHV 041603 AAA
TAFTXK
TAF AMD
KTXK 041603Z 0416/0512 24007KT P6SM VCTS BKN025CB OVC040
      TEMPO 0416/0420 2SM TSRA BR BKN015CB
     FM050000 19005KT P6SM VCTS BKN050CB=



000
FTUS44 KSHV 041140
TAFLFK
TAF
KLFK 041140Z 0412/0512 18004KT P6SM SKC
      TEMPO 0412/0416 5SM HZ BKN010
     FM041600 23008KT P6SM VCTS SCT050CB SCT100 SCT250
     FM050000 16006KT P6SM VCTS BKN050CB
     FM050300 16004KT P6SM BKN250=



000
FTUS44 KSHV 041140
TAFSHV
TAF
KSHV 041140Z 0412/0512 22006KT P6SM FEW090 BKN190 BKN270
      TEMPO 0412/0416 BKN010
     FM041600 24007KT P6SM VCTS SCT035CB BKN100 OVC150
     FM042100 24007KT P6SM BKN045
     FM050300 20004KT P6SM BKN110=



000
FTUS44 KSHV 041140
TAFTYR
TAF
KTYR 041140Z 0412/0512 22009KT P6SM SCT012
      TEMPO 0413/0416 BKN012
     FM041600 22008KT P6SM VCTS SCT030CB BKN100 OVC150
     FM050000 18005KT P6SM SCT050=



000
FTUS44 KSHV 041140
TAFELD
TAF
KELD 041140Z 0412/0512 03006KT P6SM VCTS FEW010 OVC017CB
      TEMPO 0413/0416 VRB15G30KT 1SM TSRA BKN010CB
     FM041600 24007KT P6SM VCTS SCT030CB BKN100 OVC150
     FM050000 16003KT P6SM BKN250=



000
FTUS44 KSHV 041140
TAFMLU
TAF
KMLU 041140Z 0412/0512 22008KT P6SM SKC
      TEMPO 0412/0416 BKN007
     FM041600 21009KT P6SM VCTS SCT030CB BKN100 OVC150
     FM050000 17004KT P6SM VCTS BKN050CB BKN100=



000
FTUS44 KSHV 041140
TAFMLU
TAF
KMLU 041140Z 0412/0512 22008KT P6SM SKC
      TEMPO 0412/0416 BKN007
     FM041600 21009KT P6SM VCTS SCT030CB BKN100 OVC150
     FM050000 17004KT P6SM VCTS BKN050CB BKN100=



000
FTUS44 KSHV 041140
TAFGGG
TAF
KGGG 041140Z 0412/0512 21007KT P6SM FEW011 BKN090
      TEMPO 0413/0416 BKN011
     FM041600 22008KT P6SM VCTS SCT030CB BKN100 OVC150
     FM050300 16004KT P6SM SCT250=



000
FTUS44 KSHV 041140
TAFLFK
TAF
KLFK 041140Z 0412/0512 18004KT P6SM SKC
      TEMPO 0412/0416 5SM HZ BKN010
     FM041600 23008KT P6SM VCTS SCT050CB SCT100 SCT250
     FM050000 16006KT P6SM VCTS BKN050CB
     FM050300 16004KT P6SM BKN250=



000
FTUS44 KSHV 041140
TAFSHV
TAF
KSHV 041140Z 0412/0512 22006KT P6SM FEW090 BKN190 BKN270
      TEMPO 0412/0416 BKN010
     FM041600 24007KT P6SM VCTS SCT035CB BKN100 OVC150
     FM042100 24007KT P6SM BKN045
     FM050300 20004KT P6SM BKN110=



000
FTUS44 KSHV 041140
TAFTXK
TAF
KTXK 041140Z 0412/0512 31010KT P6SM VCTS BKN016 BKN060CB OVC080
      TEMPO 0413/0416 VRB10G25KT 2SM -TSRA BKN016CB
     FM041600 24007KT P6SM VCTS SCT030CB BKN100 OVC150
     FM050000 19005KT P6SM VCTS BKN050CB=



000
FTUS44 KSHV 041140
TAFTXK
TAF
KTXK 041140Z 0412/0512 31010KT P6SM VCTS BKN016 BKN060CB OVC080
      TEMPO 0413/0416 VRB10G25KT 2SM -TSRA BKN016CB
     FM041600 24007KT P6SM VCTS SCT030CB BKN100 OVC150
     FM050000 19005KT P6SM VCTS BKN050CB=



000
FTUS44 KSHV 041140
TAFTYR
TAF
KTYR 041140Z 0412/0512 22009KT P6SM SCT012
      TEMPO 0413/0416 BKN012
     FM041600 22008KT P6SM VCTS SCT030CB BKN100 OVC150
     FM050000 18005KT P6SM SCT050=



000
FTUS44 KSHV 041140
TAFELD
TAF
KELD 041140Z 0412/0512 03006KT P6SM VCTS FEW010 OVC017CB
      TEMPO 0413/0416 VRB15G30KT 1SM TSRA BKN010CB
     FM041600 24007KT P6SM VCTS SCT030CB BKN100 OVC150
     FM050000 16003KT P6SM BKN250=



000
FTUS44 KSHV 041140
TAFGGG
TAF
KGGG 041140Z 0412/0512 21007KT P6SM FEW011 BKN090
      TEMPO 0413/0416 BKN011
     FM041600 22008KT P6SM VCTS SCT030CB BKN100 OVC150
     FM050300 16004KT P6SM SCT250=



000
FTUS44 KSHV 041131 AAA
TAFSHV
TAF AMD
KSHV 041131Z 0412/0506 22006KT P6SM FEW090 BKN190 BKN270
      TEMPO 0412/0414 BKN010
     FM041600 24007KT P6SM VCTS SCT050CB BKN100 OVC150
     FM042100 24007KT P6SM BKN045
     FM050300 18004KT P6SM BKN110=



000
FTUS44 KSHV 041131 AAA
TAFSHV
TAF AMD
KSHV 041131Z 0412/0506 22006KT P6SM FEW090 BKN190 BKN270
      TEMPO 0412/0414 BKN010
     FM041600 24007KT P6SM VCTS SCT050CB BKN100 OVC150
     FM042100 24007KT P6SM BKN045
     FM050300 18004KT P6SM BKN110=



000
FTUS44 KSHV 040539
TAFMLU
TAF
KMLU 040539Z 0406/0506 VRB04KT P6SM VCTS SCT050CB SCT250
     FM041000 22005KT P6SM VCSH SCT010 BKN100 OVC150
      TEMPO 0410/0414 BKN010
     FM041600 21009KT P6SM VCTS SCT030CB BKN100 OVC150
     FM050000 17004KT P6SM VCTS BKN050CB BKN100=



000
FTUS44 KSHV 040539
TAFTYR
TAF
KTYR 040539Z 0406/0506 19008KT P6SM SCT250
     FM041200 21007KT P6SM SCT010 BKN100 OVC150
      TEMPO 0413/0416 BKN010
     FM041600 22008KT P6SM VCTS SCT030CB BKN100 OVC150
     FM050000 18005KT P6SM SCT050=



000
FTUS44 KSHV 040539
TAFSHV
TAF
KSHV 040539Z 0406/0506 23003KT P6SM SCT045 BKN250
     FM041000 21005KT P6SM SCT010 BKN100 OVC150
      TEMPO 0410/0414 BKN010
     FM041600 24007KT P6SM VCTS SCT050CB BKN100 OVC150
     FM042100 24007KT P6SM BKN045
     FM050300 18004KT P6SM BKN110=



000
FTUS44 KSHV 040539
TAFELD
TAF
KELD 040539Z 0406/0506 00000KT P6SM VCTS BKN050CB BKN120
     FM041200 21005KT P6SM VCTS SCT010CB BKN100 OVC150
      TEMPO 0413/0416 BKN010CB
     FM041600 24007KT P6SM VCTS SCT030CB BKN100 OVC150
     FM050000 16003KT P6SM BKN250=



000
FTUS44 KSHV 040539
TAFLFK
TAF
KLFK 040539Z 0406/0506 16004KT P6SM SCT250
      TEMPO 0412/0416 5SM HZ BKN010
     FM041600 23008KT P6SM VCTS SCT050CB SCT100 SCT250
     FM050000 16006KT P6SM VCTS BKN050CB
     FM050300 16004KT P6SM BKN250=



000
FTUS44 KSHV 040539
TAFTXK
TAF
KTXK 040539Z 0406/0506 19005KT 6SM BR VCTS SCT050CB SCT100
     FM041200 21005KT P6SM VCSH SCT010 BKN100 OVC150
      TEMPO 0413/0416 BKN010
     FM041600 24007KT P6SM VCTS SCT030CB BKN100 OVC150
     FM050000 19005KT P6SM VCTS BKN050CB=



000
FTUS44 KSHV 040539
TAFGGG
TAF
KGGG 040539Z 0406/0506 20010KT P6SM SCT250
     FM041200 21007KT P6SM SCT010 BKN100 OVC150
      TEMPO 0413/0416 BKN010
     FM041600 22008KT P6SM VCTS SCT030CB BKN100 OVC150
     FM050300 16004KT P6SM SCT250=



000
FTUS44 KSHV 040346 AAA
TAFTXK
TAF AMD
KTXK 040346Z 0404/0424 21008KT P6SM VCTS SCT050CB SCT250
     FM040600 19004KT P6SM VCTS BKN040CB BKN150
     FM041200 21005KT P6SM SCT010 BKN100 OVC150
      TEMPO 0413/0416 BKN010
     FM041600 24007KT P6SM VCTS SCT030CB BKN100 OVC150=



000
FTUS44 KSHV 040154 AAA
TAFSHV
TAF AMD
KSHV 040154Z 0402/0424 18004KT P6SM VCTS SCT040CB OVC140
      TEMPO 0402/0404 VRB15G25KT 4SM TSRA BKN040CB
     FM040400 19006KT P6SM VCSH SCT050 SCT100 BKN250
     FM041000 21005KT P6SM SCT010 BKN100 OVC150
      TEMPO 0410/0414 BKN010
     FM041600 24007KT P6SM VCTS SCT030CB BKN100 OVC150=



000
FTUS44 KSHV 032320
TAFMLU
TAF
KMLU 032320Z 0400/0424 22010KT P6SM VCTS FEW040CB
      TEMPO 0400/0403 3SM -TSRA BR BKN025CB
     FM040600 22006KT P6SM SCT050 SCT100 BKN250
     FM041200 22005KT P6SM SCT010 BKN100 OVC150
      TEMPO 0413/0416 BKN010
     FM041600 24009KT P6SM VCTS SCT030CB BKN100 OVC150=



000
FTUS44 KSHV 032320
TAFSHV
TAF
KSHV 032320Z 0400/0424 21007KT P6SM VCTS SCT035CB BKN140 OVC270
     FM040300 19006KT P6SM VCSH SCT050 SCT100 BKN250
     FM041000 21005KT P6SM SCT010 BKN100 OVC150
      TEMPO 0410/0414 BKN010
     FM041600 24007KT P6SM VCTS SCT030CB BKN100 OVC150=



000
FTUS44 KSHV 032320
TAFELD
TAF
KELD 032320Z 0400/0424 21005KT P6SM VCSH FEW035
     FM040400 19004KT P6SM VCSH SCT100 BKN250
     FM041200 21005KT P6SM VCTS SCT010CB BKN100 OVC150
      TEMPO 0413/0416 BKN010CB
     FM041600 24007KT P6SM VCTS SCT030CB BKN100 OVC150=



000
FTUS44 KSHV 032320
TAFTXK
TAF
KTXK 032320Z 0400/0424 21008KT P6SM SCT250
     FM040600 19004KT P6SM VCTS BKN040CB BKN150
     FM041200 21005KT P6SM SCT010 BKN100 OVC150
      TEMPO 0413/0416 BKN010
     FM041600 24007KT P6SM VCTS SCT030CB BKN100 OVC150=



000
FTUS44 KSHV 032320
TAFTYR
TAF
KTYR 032320Z 0400/0424 23006KT P6SM VCSH SKC
     FM040600 19007KT P6SM SCT050 SCT100 BKN250
     FM041200 21007KT P6SM SCT010 BKN100 OVC150
      TEMPO 0413/0416 BKN010
     FM041600 22008KT P6SM VCTS SCT030CB BKN100 OVC150=



000
FTUS44 KSHV 032320
TAFLFK
TAF
KLFK 032320Z 0400/0424 16004KT P6SM VCTS SCT050CB
      TEMPO 0400/0403 VRB15G22KT 4SM -TSRA BKN050CB
     FM040300 17003KT P6SM SCT050 SCT100 BKN250
      TEMPO 0412/0416 5SM HZ BKN010
     FM041600 20008KT P6SM VCTS SCT030CB SCT100 SCT250=



000
FTUS44 KSHV 032320
TAFGGG
TAF
KGGG 032320Z 0400/0424 20004KT P6SM VCSH SCT050
     FM040400 19005KT P6SM SCT050 SCT100 BKN250
     FM041200 21007KT P6SM SCT010 BKN100 OVC150
      TEMPO 0413/0416 BKN010
     FM041600 22008KT P6SM VCTS SCT030CB BKN100 OVC150=



000
FTUS44 KSHV 032224 AAA
TAFLFK
TAF AMD
KLFK 032224Z 0322/0418 23007KT P6SM VCTS SCT040CB BKN180 BKN250
     FM040000 20005KT P6SM VCTS SCT050CB SCT180 BKN250
     FM040600 17003KT P6SM SCT050 SCT100 BKN250
      TEMPO 0412/0416 5SM HZ BKN010
     FM041600 22008KT P6SM SCT030 SCT100 SCT250=



000
FTUS44 KSHV 032035 AAA
TAFTXK
TAF AMD
KTXK 032035Z 0321/0418 23012KT P6SM VCSH BKN015 OVC080
      TEMPO 0321/0324 VRB15G30KT 2SM TSRA BR BKN015CB
     FM040000 VRB06KT P6SM VCTS BKN030CB OVC100
      TEMPO 0400/0404 VRB15G30KT 2SM TSRA BR BKN015CB
     FM040600 19004KT P6SM VCTS BKN040CB BKN150
     FM041200 21005KT P6SM SCT010 BKN100 OVC150
      TEMPO 0413/0416 BKN010
     FM041600 24007KT P6SM SCT030 BKN100 OVC150=



000
FTUS44 KSHV 031735
TAFSHV
TAF
KSHV 031735Z 0318/0418 21012KT P6SM VCSH SCT040 BKN150 OVC250
      TEMPO 0320/0324 VRB15G30KT 2SM TSRA BR BKN030CB
     FM040000 VRB06KT P6SM VCTS BKN040CB OVC100
      TEMPO 0400/0403 3SM -TSRA BR BKN025CB
     FM040600 19006KT P6SM SCT050 SCT100 BKN250
     FM041200 21005KT P6SM SCT010 BKN100 OVC150
      TEMPO 0413/0416 BKN010
     FM041600 24007KT P6SM SCT030 BKN100 OVC150=



000
FTUS44 KSHV 031735
TAFTXK
TAF
KTXK 031735Z 0318/0418 21012KT P6SM VCTS SCT030CB BKN150 OVC250
      TEMPO 0318/0322 VRB15G30KT 2SM TSRA BR BKN025CB
     FM032200 VRB06KT P6SM VCTS BKN035CB OVC100
      TEMPO 0322/0402 VRB15G30KT 2SM TSRA BR BKN015CB
     FM040600 19004KT P6SM SCT050 SCT100 BKN250
     FM041200 21005KT P6SM SCT010 BKN100 OVC150
      TEMPO 0413/0416 BKN010
     FM041600 24007KT P6SM SCT030 BKN100 OVC150=



000
FTUS44 KSHV 031735
TAFMLU
TAF
KMLU 031735Z 0318/0418 23010KT P6SM SCT040 BKN150 OVC250
     FM032100 24012KT P6SM VCTS SCT045CB BKN150 OVC250
      TEMPO 0321/0324 VRB15G30KT 2SM TSRA BR BKN040CB
     FM040000 VRB06KT P6SM VCTS BKN040CB OVC100
      TEMPO 0400/0403 3SM -TSRA BR BKN025CB
     FM040600 VRB04KT P6SM SCT050 SCT100 BKN250
     FM041200 22005KT P6SM SCT010 BKN100 OVC150
      TEMPO 0413/0416 BKN010
     FM041600 24009KT P6SM SCT030 BKN100 OVC150=



000
FTUS44 KSHV 031735
TAFLFK
TAF
KLFK 031735Z 0318/0418 23007KT P6SM SCT040 BKN180 BKN250
     FM040000 20005KT P6SM VCTS SCT050CB SCT180 BKN250
     FM040600 17003KT P6SM SCT050 SCT100 BKN250
      TEMPO 0412/0416 5SM HZ BKN010
     FM041600 22008KT P6SM SCT030 SCT100 SCT250=



000
FTUS44 KSHV 031735
TAFGGG
TAF
KGGG 031735Z 0318/0418 23012KT P6SM VCSH BKN035 BKN150 OVC250
      TEMPO 0320/0324 VRB15G30KT 2SM TSRA BR BKN030CB
     FM040000 VRB06KT P6SM VCTS BKN040CB OVC100
      TEMPO 0400/0403 3SM -TSRA BR BKN025CB
     FM040600 19007KT P6SM SCT050 SCT100 BKN250
     FM041200 21007KT P6SM SCT010 BKN100 OVC150
      TEMPO 0413/0416 BKN010
     FM041600 22008KT P6SM SCT030 BKN100 OVC150=



000
FTUS44 KSHV 031735
TAFELD
TAF
KELD 031735Z 0318/0418 22010KT P6SM VCSH SCT030 BKN150 OVC250
      TEMPO 0318/0322 VRB15G30KT 2SM TSRA BR BKN015CB
     FM032200 VRB06KT P6SM VCTS BKN035CB OVC100
      TEMPO 0322/0402 VRB15G30KT 2SM TSRA BR BKN015CB
     FM040600 19004KT P6SM SCT050 SCT100 BKN250
     FM041200 21005KT P6SM SCT010 BKN100 OVC150
      TEMPO 0413/0416 BKN010
     FM041600 24007KT P6SM SCT030 BKN100 OVC150=



000
FTUS44 KSHV 031735
TAFTYR
TAF
KTYR 031735Z 0318/0418 23012KT P6SM VCSH SCT035 BKN150 OVC250
      TEMPO 0320/0324 VRB15G30KT 2SM TSRA BR BKN030CB
     FM040000 VRB06KT P6SM VCTS BKN040CB OVC100
      TEMPO 0400/0403 3SM -TSRA BR BKN025CB
     FM040600 19007KT P6SM SCT050 SCT100 BKN250
     FM041200 21007KT P6SM SCT010 BKN100 OVC150
      TEMPO 0413/0416 BKN010
     FM041600 22008KT P6SM SCT030 BKN100 OVC150=



000
FTUS44 KSHV 031735
TAFSHV
TAF
KSHV 031735Z 0318/0418 21012KT P6SM VCSH SCT040 BKN150 OVC250
      TEMPO 0320/0324 VRB15G30KT 2SM TSRA BR BKN030CB
     FM040000 VRB06KT P6SM VCTS BKN040CB OVC100
      TEMPO 0400/0403 3SM -TSRA BR BKN025CB
     FM040600 19006KT P6SM SCT050 SCT100 BKN250
     FM041200 21005KT P6SM SCT010 BKN100 OVC150
      TEMPO 0413/0416 BKN010
     FM041600 24007KT P6SM SCT030 BKN100 OVC150=



000
FTUS44 KSHV 031735
TAFTYR
TAF
KTYR 031735Z 0318/0418 23012KT P6SM VCSH SCT035 BKN150 OVC250
      TEMPO 0320/0324 VRB15G30KT 2SM TSRA BR BKN030CB
     FM040000 VRB06KT P6SM VCTS BKN040CB OVC100
      TEMPO 0400/0403 3SM -TSRA BR BKN025CB
     FM040600 19007KT P6SM SCT050 SCT100 BKN250
     FM041200 21007KT P6SM SCT010 BKN100 OVC150
      TEMPO 0413/0416 BKN010
     FM041600 22008KT P6SM SCT030 BKN100 OVC150=



000
FTUS44 KSHV 031735
TAFLFK
TAF
KLFK 031735Z 0318/0418 23007KT P6SM SCT040 BKN180 BKN250
     FM040000 20005KT P6SM VCTS SCT050CB SCT180 BKN250
     FM040600 17003KT P6SM SCT050 SCT100 BKN250
      TEMPO 0412/0416 5SM HZ BKN010
     FM041600 22008KT P6SM SCT030 SCT100 SCT250=



000
FTUS44 KSHV 031735
TAFTXK
TAF
KTXK 031735Z 0318/0418 21012KT P6SM VCTS SCT030CB BKN150 OVC250
      TEMPO 0318/0322 VRB15G30KT 2SM TSRA BR BKN025CB
     FM032200 VRB06KT P6SM VCTS BKN035CB OVC100
      TEMPO 0322/0402 VRB15G30KT 2SM TSRA BR BKN015CB
     FM040600 19004KT P6SM SCT050 SCT100 BKN250
     FM041200 21005KT P6SM SCT010 BKN100 OVC150
      TEMPO 0413/0416 BKN010
     FM041600 24007KT P6SM SCT030 BKN100 OVC150=



000
FTUS44 KSHV 031735
TAFELD
TAF
KELD 031735Z 0318/0418 22010KT P6SM VCSH SCT030 BKN150 OVC250
      TEMPO 0318/0322 VRB15G30KT 2SM TSRA BR BKN015CB
     FM032200 VRB06KT P6SM VCTS BKN035CB OVC100
      TEMPO 0322/0402 VRB15G30KT 2SM TSRA BR BKN015CB
     FM040600 19004KT P6SM SCT050 SCT100 BKN250
     FM041200 21005KT P6SM SCT010 BKN100 OVC150
      TEMPO 0413/0416 BKN010
     FM041600 24007KT P6SM SCT030 BKN100 OVC150=



000
FTUS44 KSHV 031735
TAFGGG
TAF
KGGG 031735Z 0318/0418 23012KT P6SM VCSH BKN035 BKN150 OVC250
      TEMPO 0320/0324 VRB15G30KT 2SM TSRA BR BKN030CB
     FM040000 VRB06KT P6SM VCTS BKN040CB OVC100
      TEMPO 0400/0403 3SM -TSRA BR BKN025CB
     FM040600 19007KT P6SM SCT050 SCT100 BKN250
     FM041200 21007KT P6SM SCT010 BKN100 OVC150
      TEMPO 0413/0416 BKN010
     FM041600 22008KT P6SM SCT030 BKN100 OVC150=



000
FTUS44 KSHV 031735
TAFMLU
TAF
KMLU 031735Z 0318/0418 23010KT P6SM SCT040 BKN150 OVC250
     FM032100 24012KT P6SM VCTS SCT045CB BKN150 OVC250
      TEMPO 0321/0324 VRB15G30KT 2SM TSRA BR BKN040CB
     FM040000 VRB06KT P6SM VCTS BKN040CB OVC100
      TEMPO 0400/0403 3SM -TSRA BR BKN025CB
     FM040600 VRB04KT P6SM SCT050 SCT100 BKN250
     FM041200 22005KT P6SM SCT010 BKN100 OVC150
      TEMPO 0413/0416 BKN010
     FM041600 24009KT P6SM SCT030 BKN100 OVC150=



000
FTUS44 KSHV 031411 AAA
TAFTXK
TAF AMD
KTXK 031411Z 0314/0412 22012KT P6SM VCSH SCT030 BKN080 OVC250
      TEMPO 0316/0319 VRB15G30KT 2SM TSRA BR BKN030CB
     FM031900 22010G16KT P6SM VCTS BKN040CB OVC080
      TEMPO 0319/0322 VRB15G30KT 2SM TSRA BR BKN030CB
     FM040200 21007KT P6SM BKN050
     FM041000 22005KT P6SM VCTS BKN045CB=



000
FTUS44 KSHV 031411 AAA
TAFTXK
TAF AMD
KTXK 031411Z 0314/0412 22012KT P6SM VCSH SCT030 BKN080 OVC250
      TEMPO 0316/0319 VRB15G30KT 2SM TSRA BR BKN030CB
     FM031900 22010G16KT P6SM VCTS BKN040CB OVC080
      TEMPO 0319/0322 VRB15G30KT 2SM TSRA BR BKN030CB
     FM040200 21007KT P6SM BKN050
     FM041000 22005KT P6SM VCTS BKN045CB=



000
FTUS44 KSHV 031258 AAA
TAFLFK
TAF AMD
KLFK 031258Z 0313/0412 16003KT 3SM BR OVC002
      TEMPO 0313/0315 1SM BR BKN006
     FM031500 21008KT P6SM BKN015
     FM031600 20010KT P6SM SCT015 SCT150 BKN250
     FM031800 21011KT P6SM BKN050
     FM032300 20008KT P6SM VCTS BKN045CB BKN180
     FM040100 16005KT P6SM BKN045 BKN180
     FM040900 18003KT 4SM BR OVC015=



000
FTUS44 KSHV 031258 AAA
TAFLFK
TAF AMD
KLFK 031258Z 0313/0412 16003KT 3SM BR OVC002
      TEMPO 0313/0315 1SM BR BKN006
     FM031500 21008KT P6SM BKN015
     FM031600 20010KT P6SM SCT015 SCT150 BKN250
     FM031800 21011KT P6SM BKN050
     FM032300 20008KT P6SM VCTS BKN045CB BKN180
     FM040100 16005KT P6SM BKN045 BKN180
     FM040900 18003KT 4SM BR OVC015=



000
FTUS44 KSHV 031158
TAFSHV
TAF
KSHV 031158Z 0312/0412 21004KT P6SM BKN180 OVC250
      TEMPO 0312/0315 BKN010 OVC180
     FM031500 24011G18KT P6SM SCT025 BKN150 OVC250
     FM031800 21009KT P6SM VCSH SCT050 OVC150
     FM032100 23008KT 6SM -TSRA BKN045CB
      TEMPO 0322/0324 5SM -TSRA BKN040CB OVC070
     FM040100 20004KT P6SM SCT045 BKN130
     FM041100 22005KT P6SM OVC015=



000
FTUS44 KSHV 031158
TAFMLU
TAF
KMLU 031158Z 0312/0412 22008KT P6SM SCT120 BKN150 OVC250
     FM031600 24016G22KT P6SM BKN250
     FM031800 23009KT P6SM VCTS BKN050CB OVC250
     FM032200 24011KT 6SM -TSRA BKN045CB
     FM040100 22003KT P6SM OVC100
     FM040300 16004KT P6SM OVC015
     FM040800 20005KT P6SM -SHRA BKN045
     FM041000 21006KT 5SM -TSRA BR BKN040CB=



000
FTUS44 KSHV 031158
TAFTXK
TAF
KTXK 031158Z 0312/0412 22009KT P6SM VCSH BKN040 OVC140
      TEMPO 0313/0316 5SM -TSRA BR BKN030CB OVC045
     FM031600 23012KT P6SM BKN045 OVC080
     FM031900 22010G16KT P6SM OVC050
     FM032200 22010G15KT P6SM BKN050 OVC120
     FM040200 21007KT P6SM BKN050
     FM041000 22005KT P6SM VCTS BKN045CB=



000
FTUS44 KSHV 031158
TAFTYR
TAF
KTYR 031158Z 0312/0412 20009KT P6SM FEW010 BKN150 OVC250
      TEMPO 0312/0315 BKN010
     FM031500 21012G18KT P6SM SCT015 OVC120
     FM032200 22009KT P6SM VCTS BKN050CB BKN250
     FM040300 15007KT P6SM VCSH SCT050 BKN110
     FM040900 20008KT P6SM BKN015 OVC100=



000
FTUS44 KSHV 031158
TAFLFK
TAF
KLFK 031158Z 0312/0412 19003KT 4SM BR FEW004
      TEMPO 0312/0314 3SM BR BKN004
     FM031400 21008KT P6SM BKN010
     FM031600 20010KT P6SM SCT015 SCT150 BKN250
     FM031800 21011KT P6SM BKN050
     FM032300 20008KT P6SM VCTS BKN045CB BKN180
     FM040100 16005KT P6SM BKN045 BKN180
     FM040900 18003KT 4SM BR OVC015=



000
FTUS44 KSHV 031158
TAFSHV
TAF
KSHV 031158Z 0312/0412 21004KT P6SM BKN180 OVC250
      TEMPO 0312/0315 BKN010 OVC180
     FM031500 24011G18KT P6SM SCT025 BKN150 OVC250
     FM031800 21009KT P6SM VCSH SCT050 OVC150
     FM032100 23008KT 6SM -TSRA BKN045CB
      TEMPO 0322/0324 5SM -TSRA BKN040CB OVC070
     FM040100 20004KT P6SM SCT045 BKN130
     FM041100 22005KT P6SM OVC015=



000
FTUS44 KSHV 031158
TAFGGG
TAF
KGGG 031158Z 0312/0412 19005KT P6SM FEW010 BKN150 OVC250
      TEMPO 0312/0315 BKN010
     FM031500 21010G17KT P6SM VCTS SCT015CB OVC150
     FM031900 21010KT P6SM VCTS BKN050CB
     FM040300 13005KT P6SM VCSH BKN110
     FM040900 20008KT P6SM BKN015 OVC100=



000
FTUS44 KSHV 031158
TAFELD
TAF
KELD 031158Z 0312/0412 VRB06KT P6SM FEW015 BKN180
      TEMPO 0313/0315 BKN015
     FM031500 VRB06KT P6SM VCTS SCT040CB OVC140
     FM031800 21011G17KT P6SM VCTS OVC050CB
     FM032000 22008KT P6SM OVC050
     FM040000 18004KT P6SM VCSH OVC050
     FM040600 20003KT P6SM OVC050=



000
FTUS44 KSHV 031122 AAA
TAFLFK
TAF AMD
KLFK 031122Z 0311/0406 19003KT 4SM BR FEW004
      TEMPO 0311/0314 3SM BR BKN004
     FM031400 21008KT P6SM BKN010
     FM031600 20010KT P6SM SCT015 SCT150 BKN250
     FM031800 21011KT P6SM BKN050
     FM032300 20008KT P6SM VCTS BKN045CB BKN180
     FM040100 16005KT P6SM BKN045 BKN180=



000
FTUS44 KSHV 031122 AAA
TAFLFK
TAF AMD
KLFK 031122Z 0311/0406 19003KT 4SM BR FEW004
      TEMPO 0311/0314 3SM BR BKN004
     FM031400 21008KT P6SM BKN010
     FM031600 20010KT P6SM SCT015 SCT150 BKN250
     FM031800 21011KT P6SM BKN050
     FM032300 20008KT P6SM VCTS BKN045CB BKN180
     FM040100 16005KT P6SM BKN045 BKN180=



    US Dept of Commerce
    National Oceanic and Atmospheric Administration
    National Weather Service
    1325 East West Highway
    Silver Spring, MD 20910
    Page Author: NWS Internet Services Team
Disclaimer
Information Quality
Credits
Glossary
Privacy Policy
Freedom of Information Act (FOIA)
About Us
Career Opportunities